Time;durP1;ratioP1;P1;durP2;ratioP2;P2;SDS_P1;SDS_P2;PMS_P1;PMS_P2;Temp;Humidity;BMP_temperature;BMP_pressure;BME280_temperature;BME280_humidity;BME280_pressure;Samples;Min_cycle;Max_cycle;Signal;HPM_P1;HPM_P2
2023/09/22 00:01:46;;;;;;;21.30;7.57;;;;;;;13.31;100.00;99707.34;6211747;23;20104;-67
2023/09/22 00:40:14;;;;;;;17.63;6.68;;;;;;;12.98;100.00;99717.88;6175948;23;20031;-67
2023/09/22 00:42:39;;;;;;;20.58;7.13;;;;;;;12.92;100.00;99718.50;6151625;23;20033;-67
2023/09/22 00:45:05;;;;;;;20.23;6.55;;;;;;;12.91;100.00;99717.66;6149610;23;20016;-67
2023/09/22 00:47:30;;;;;;;21.85;8.10;;;;;;;12.89;100.00;99711.56;6148916;23;20051;-68
2023/09/22 00:49:56;;;;;;;21.65;7.05;;;;;;;12.82;100.00;99702.38;6150782;23;20400;-68
2023/09/22 00:52:23;;;;;;;18.92;7.60;;;;;;;12.86;100.00;99694.84;6151376;23;20065;-68
2023/09/22 00:54:49;;;;;;;23.05;8.00;;;;;;;12.83;100.00;99695.16;6150747;23;20343;-68
2023/09/22 00:57:16;;;;;;;25.20;7.93;;;;;;;12.79;100.00;99685.69;6150494;23;20009;-67
2023/09/22 00:59:44;;;;;;;22.80;8.77;;;;;;;12.79;100.00;99686.53;6150218;23;20012;-67
2023/09/22 01:02:11;;;;;;;23.13;8.18;;;;;;;12.81;100.00;99697.16;6151607;23;20005;-73
2023/09/22 01:04:36;;;;;;;19.45;7.25;;;;;;;12.81;100.00;99697.16;6152955;23;20451;-73
2023/09/22 01:07:01;;;;;;;20.25;8.55;;;;;;;12.80;100.00;99708.94;6152607;23;20055;-73
2023/09/22 01:09:27;;;;;;;20.58;8.52;;;;;;;12.77;100.00;99710.94;6150447;23;20079;-73
2023/09/22 01:11:52;;;;;;;23.77;8.90;;;;;;;12.77;100.00;99694.78;6151318;23;20010;-73
2023/09/22 01:14:18;;;;;;;21.73;8.38;;;;;;;12.78;100.00;99695.59;6152963;23;20002;-72
2023/09/22 01:16:43;;;;;;;21.80;8.20;;;;;;;12.76;100.00;99700.31;6152807;23;20077;-73
2023/09/22 01:19:16;;;;;;;24.77;8.48;;;;;;;12.75;100.00;99698.63;6153380;23;20076;-73
2023/09/22 01:21:44;;;;;;;21.25;8.57;;;;;;;12.72;100.00;99701.63;6152858;23;20046;-72
2023/09/22 01:24:11;;;;;;;23.15;8.88;;;;;;;12.70;100.00;99698.25;6152572;23;20008;-72
2023/09/22 01:26:38;;;;;;;20.98;8.20;;;;;;;12.68;100.00;99694.84;6152333;23;20443;-73
2023/09/22 01:29:04;;;;;;;25.67;8.13;;;;;;;12.66;100.00;99686.91;6153305;23;20016;-72
2023/09/22 01:31:29;;;;;;;22.15;8.07;;;;;;;12.67;100.00;99685.09;6151028;23;20017;-72
2023/09/22 01:33:54;;;;;;;22.77;8.65;;;;;;;12.64;100.00;99686.22;6150934;23;20009;-73
2023/09/22 01:36:20;;;;;;;25.17;9.02;;;;;;;12.59;100.00;99678.63;6151969;23;20109;-72
2023/09/22 01:38:46;;;;;;;22.33;7.65;;;;;;;12.63;100.00;99679.13;6152872;23;20060;-73
2023/09/22 01:41:11;;;;;;;24.50;8.82;;;;;;;12.56;100.00;99673.53;6184185;23;20016;-73
2023/09/22 01:43:38;;;;;;;23.77;8.63;;;;;;;12.57;100.00;99686.00;6185444;23;20339;-72
2023/09/22 01:46:03;;;;;;;21.70;8.57;;;;;;;12.56;100.00;99678.94;6212453;23;20438;-73
2023/09/22 01:48:28;;;;;;;21.52;8.57;;;;;;;12.57;100.00;99679.75;6211451;23;20011;-72
2023/09/22 01:50:54;;;;;;;23.08;8.65;;;;;;;12.56;100.00;99684.31;6212203;23;20260;-72
2023/09/22 01:53:19;;;;;;;20.60;7.55;;;;;;;12.56;100.00;99691.53;6212911;23;20000;-73
2023/09/22 01:55:46;;;;;;;21.02;8.45;;;;;;;12.58;100.00;99692.25;6212460;23;20000;-73
2023/09/22 01:58:11;;;;;;;21.42;8.27;;;;;;;12.59;100.00;99686.69;6212009;23;20027;-73
2023/09/22 02:00:38;;;;;;;20.83;8.18;;;;;;;12.59;100.00;99683.13;6212540;23;20001;-72
2023/09/22 02:03:05;;;;;;;23.13;9.25;;;;;;;12.56;100.00;99684.31;6212663;23;20009;-72
2023/09/22 02:05:31;;;;;;;22.15;8.90;;;;;;;12.58;100.00;99687.69;6212299;23;20008;-73
2023/09/22 02:07:59;;;;;;;23.60;9.60;;;;;;;12.56;100.00;99678.94;6185100;23;20337;-73
2023/09/22 02:10:25;;;;;;;23.77;8.65;;;;;;;12.62;100.00;99682.00;6212539;23;20024;-72
2023/09/22 02:12:50;;;;;;;22.42;8.95;;;;;;;12.64;100.00;99682.69;6185789;23;20005;-72
2023/09/22 02:15:16;;;;;;;23.60;8.95;;;;;;;12.64;100.00;99680.00;6211982;23;20009;-73
2023/09/22 02:17:43;;;;;;;23.08;8.65;;;;;;;12.66;100.00;99681.53;6185695;23;20001;-72
2023/09/22 02:20:22;;;;;;;21.65;8.35;;;;;;;12.70;100.00;99687.47;6212428;23;20039;-72
2023/09/22 02:22:49;;;;;;;24.50;9.73;;;;;;;12.70;100.00;99688.31;6212700;23;20009;-73
2023/09/22 02:25:15;;;;;;;22.20;8.70;;;;;;;12.72;100.00;99693.53;6211539;23;20344;-73
2023/09/22 02:27:42;;;;;;;24.67;9.15;;;;;;;12.73;100.00;99696.09;6212437;23;20008;-72
2023/09/22 02:30:08;;;;;;;24.05;9.57;;;;;;;12.73;100.00;99690.69;6185698;23;20008;-73
2023/09/22 02:32:34;;;;;;;22.13;8.38;;;;;;;12.74;100.00;99687.00;6212303;23;20058;-72
2023/09/22 02:34:59;;;;;;;25.88;9.65;;;;;;;12.75;100.00;99685.13;6211806;23;20061;-72
2023/09/22 02:37:25;;;;;;;22.80;9.13;;;;;;;12.73;100.00;99681.75;6212200;23;20004;-73
2023/09/22 02:39:50;;;;;;;23.25;9.07;;;;;;;12.76;100.00;99681.44;6212105;23;20046;-72
2023/09/22 02:42:15;;;;;;;25.08;9.70;;;;;;;12.74;100.00;99684.31;6212814;23;20016;-73
2023/09/22 02:44:40;;;;;;;22.52;8.27;;;;;;;12.75;100.00;99687.84;6185042;23;20087;-73
2023/09/22 02:47:09;;;;;;;21.13;8.07;;;;;;;12.76;100.00;99684.97;6185022;23;20013;-73
2023/09/22 02:49:34;;;;;;;24.02;8.73;;;;;;;12.73;100.00;99684.47;6211686;23;20004;-72
2023/09/22 02:51:59;;;;;;;21.67;8.30;;;;;;;12.71;100.00;99690.00;6185412;23;20004;-72
2023/09/22 02:54:25;;;;;;;21.10;8.32;;;;;;;12.72;100.00;99689.00;6185089;23;20023;-73
2023/09/22 02:56:50;;;;;;;24.17;9.07;;;;;;;12.75;100.00;99690.53;6211780;23;20050;-73
2023/09/22 02:59:17;;;;;;;22.55;8.75;;;;;;;12.72;100.00;99690.84;6212097;23;20004;-72
2023/09/22 03:01:43;;;;;;;27.15;9.35;;;;;;;12.72;100.00;99693.53;6185189;23;20008;-73
2023/09/22 03:04:09;;;;;;;22.15;8.75;;;;;;;12.75;100.00;99687.84;6211535;23;20024;-69
2023/09/22 03:06:37;;;;;;;23.90;9.10;;;;;;;12.75;100.00;99680.63;6184969;23;20015;-73
2023/09/22 03:09:09;;;;;;;22.27;8.77;;;;;;;12.74;100.00;99696.94;6211989;23;20070;-73
2023/09/22 03:11:37;;;;;;;23.00;8.20;;;;;;;12.71;100.00;99686.47;6211977;23;20008;-72
2023/09/22 03:14:03;;;;;;;21.05;7.78;;;;;;;12.71;100.00;99697.25;6211570;23;20005;-72
2023/09/22 03:16:29;;;;;;;20.77;7.95;;;;;;;12.70;100.00;99698.25;6211442;23;20084;-72
2023/09/22 03:18:54;;;;;;;20.95;8.52;;;;;;;12.69;100.00;99700.06;6185034;23;20079;-73
2023/09/22 03:21:22;;;;;;;22.80;8.27;;;;;;;12.69;100.00;99696.53;6184735;23;20020;-73
2023/09/22 03:23:51;;;;;;;22.23;7.72;;;;;;;12.66;100.00;99697.69;6184313;23;20085;-72
2023/09/22 03:26:20;;;;;;;21.17;7.53;;;;;;;12.67;100.00;99696.72;6185246;23;20346;-67
2023/09/22 03:28:47;;;;;;;20.35;7.85;;;;;;;12.71;100.00;99694.56;6212105;23;20005;-66
2023/09/22 03:31:12;;;;;;;19.42;6.95;;;;;;;12.72;100.00;99696.25;6211805;23;20001;-67
2023/09/22 03:33:41;;;;;;;20.95;8.07;;;;;;;12.74;100.00;99694.25;6211754;23;20008;-66
2023/09/22 03:36:10;;;;;;;21.35;7.70;;;;;;;12.73;100.00;99695.25;6211739;23;20476;-67
2023/09/22 03:38:37;;;;;;;22.65;7.53;;;;;;;12.75;100.00;99701.31;6212009;23;20001;-66
2023/09/22 03:41:03;;;;;;;21.35;7.22;;;;;;;12.77;100.00;99705.56;6212129;23;20017;-67
2023/09/22 03:43:29;;;;;;;20.50;8.07;;;;;;;12.82;100.00;99702.38;6212227;23;20008;-67
2023/09/22 03:45:55;;;;;;;21.48;7.25;;;;;;;12.81;100.00;99699.84;6184932;23;19996;-66
2023/09/22 03:48:21;;;;;;;19.10;6.50;;;;;;;12.82;100.00;99696.16;6212028;23;20400;-67
2023/09/22 03:50:46;;;;;;;18.50;6.03;;;;;;;12.82;100.00;99696.16;6211464;23;20312;-66
2023/09/22 03:53:11;;;;;;;16.50;5.55;;;;;;;12.83;100.00;99697.88;6211893;23;20011;-67
2023/09/22 03:55:37;;;;;;;20.55;7.10;;;;;;;12.80;100.00;99703.53;6184553;23;20040;-67
2023/09/22 03:58:03;;;;;;;18.83;5.95;;;;;;;12.80;100.00;99704.41;6211871;23;20019;-67
2023/09/22 04:00:28;;;;;;;17.05;6.15;;;;;;;12.80;100.00;99709.81;6211917;23;20016;-66
2023/09/22 04:02:54;;;;;;;20.92;5.70;;;;;;;12.80;100.00;99706.22;6211791;23;20082;-67
2023/09/22 04:05:19;;;;;;;18.50;5.30;;;;;;;12.83;100.00;99705.97;6211666;23;20000;-68
2023/09/22 04:07:45;;;;;;;16.40;5.70;;;;;;;12.87;100.00;99715.41;6185205;23;20054;-66
2023/09/22 04:10:10;;;;;;;19.20;5.07;;;;;;;12.88;100.00;99704.47;6211917;23;20269;-66
2023/09/22 04:12:36;;;;;;;18.13;5.03;;;;;;;12.86;100.00;99701.09;6211790;23;20031;-66
2023/09/22 04:15:05;;;;;;;18.05;5.20;;;;;;;12.91;100.00;99706.00;6211747;23;20001;-66
2023/09/22 04:17:32;;;;;;;20.48;5.45;;;;;;;12.89;100.00;99706.16;6211796;23;20004;-66
2023/09/22 04:19:58;;;;;;;14.98;5.15;;;;;;;12.91;100.00;99712.25;6211811;23;20721;-66
2023/09/22 04:22:23;;;;;;;17.05;5.50;;;;;;;12.90;100.00;99712.44;6211677;23;20008;-66
2023/09/22 04:24:58;;;;;;;12.63;3.97;;;;;;;12.87;100.00;99718.97;6211336;23;20003;-66
2023/09/22 04:27:28;;;;;;;17.55;4.78;;;;;;;12.88;100.00;99719.81;6211788;23;20013;-67
2023/09/22 04:29:53;;;;;;;14.82;4.35;;;;;;;12.87;100.00;99726.19;6211877;23;20012;-66
2023/09/22 04:32:19;;;;;;;16.95;4.70;;;;;;;12.84;100.00;99721.97;6213682;23;20004;-67
2023/09/22 04:34:45;;;;;;;15.38;4.88;;;;;;;12.79;100.00;99718.88;6213358;23;20000;-67
2023/09/22 04:37:10;;;;;;;13.73;4.18;;;;;;;12.81;100.00;99716.91;6213860;23;20012;-66
2023/09/22 04:39:35;;;;;;;15.73;4.50;;;;;;;12.81;100.00;99725.00;6186717;23;20007;-66
2023/09/22 04:42:01;;;;;;;13.85;4.43;;;;;;;12.77;100.00;99719.03;6186804;23;20040;-67
2023/09/22 04:44:27;;;;;;;12.50;4.07;;;;;;;12.76;100.00;99720.03;6213547;23;20076;-68
2023/09/22 04:46:52;;;;;;;18.83;5.03;;;;;;;12.75;100.00;99722.88;6213568;23;20228;-67
2023/09/22 04:49:18;;;;;;;15.38;4.50;;;;;;;12.72;100.00;99726.75;6213678;23;20023;-66
2023/09/22 04:51:43;;;;;;;13.75;4.32;;;;;;;12.71;100.00;99732.31;6213472;23;20020;-67
2023/09/22 04:54:09;;;;;;;14.05;4.43;;;;;;;12.67;100.00;99725.53;6186317;23;20086;-67
2023/09/22 04:56:34;;;;;;;11.35;3.88;;;;;;;12.66;100.00;99730.03;6213744;23;20012;-67
2023/09/22 04:59:00;;;;;;;17.92;4.65;;;;;;;12.66;100.00;99729.22;6212266;23;20009;-67
2023/09/22 05:01:26;;;;;;;14.02;4.10;;;;;;;12.66;100.00;99723.81;6213752;23;20422;-66
2023/09/22 05:03:54;;;;;;;12.63;4.05;;;;;;;12.67;100.00;99731.75;6212790;23;20012;-66
2023/09/22 05:06:19;;;;;;;18.13;4.57;;;;;;;12.65;100.00;99732.91;6212164;23;20096;-67
2023/09/22 05:08:44;;;;;;;12.95;4.05;;;;;;;12.63;100.00;99732.22;6212579;23;20135;-66
2023/09/22 05:11:10;;;;;;;14.27;4.28;;;;;;;12.62;100.00;99738.59;6212657;23;20407;-66
2023/09/22 05:13:36;;;;;;;13.60;3.78;;;;;;;12.58;100.00;99738.91;6213152;23;20416;-67
2023/09/22 05:16:09;;;;;;;10.40;3.80;;;;;;;12.56;100.00;99746.31;6212295;23;20076;-67
2023/09/22 05:18:35;;;;;;;14.80;4.50;;;;;;;12.55;100.00;99741.06;6212630;23;20007;-67
2023/09/22 05:21:02;;;;;;;12.95;4.25;;;;;;;12.56;100.00;99749.00;6211688;23;20008;-68
2023/09/22 05:23:29;;;;;;;15.57;4.10;;;;;;;12.57;100.00;99750.69;6210476;23;20435;-67
2023/09/22 05:25:55;;;;;;;11.57;4.03;;;;;;;12.59;100.00;99750.53;6211842;23;20521;-67
2023/09/22 05:28:20;;;;;;;13.90;4.80;;;;;;;12.59;100.00;99753.22;6213303;23;20001;-67
2023/09/22 05:30:45;;;;;;;11.57;3.78;;;;;;;12.56;100.00;99757.09;6211419;23;20393;-66
2023/09/22 05:33:11;;;;;;;13.18;4.05;;;;;;;12.52;100.00;99755.69;6213698;23;20009;-66
2023/09/22 05:35:36;;;;;;;11.52;4.18;;;;;;;12.54;100.00;99756.38;6212818;23;20107;-66
2023/09/22 05:38:03;;;;;;;12.13;4.18;;;;;;;12.52;100.00;99760.25;6212408;23;20445;-66
2023/09/22 05:40:32;;;;;;;11.90;4.25;;;;;;;12.51;100.00;99764.78;6211866;23;20024;-67
2023/09/22 05:42:58;;;;;;;14.95;4.55;;;;;;;12.53;100.00;99770.00;6185431;23;20008;-67
2023/09/22 05:45:23;;;;;;;15.07;4.10;;;;;;;12.52;100.00;99774.56;6212360;23;20354;-73
2023/09/22 05:47:48;;;;;;;14.73;4.60;;;;;;;12.51;100.00;99780.94;6212209;23;20358;-73
2023/09/22 05:50:14;;;;;;;14.40;4.53;;;;;;;12.51;100.00;99775.56;6212125;23;20011;-73
2023/09/22 05:52:39;;;;;;;13.40;4.07;;;;;;;12.51;100.00;99770.16;6212559;23;20034;-72
2023/09/22 05:55:06;;;;;;;14.68;4.35;;;;;;;12.54;100.00;99777.09;6211817;23;20035;-72
2023/09/22 05:57:33;;;;;;;16.48;4.35;;;;;;;12.52;100.00;99774.56;6212545;23;20342;-72
2023/09/22 05:59:59;;;;;;;12.70;4.28;;;;;;;12.54;100.00;99780.63;6185914;23;20091;-73
2023/09/22 06:02:25;;;;;;;9.05;3.85;;;;;;;12.55;100.00;99793.13;6211115;23;20086;-73
2023/09/22 06:04:52;;;;;;;12.13;3.65;;;;;;;12.56;100.00;99792.13;6209994;23;20004;-73
2023/09/22 06:07:22;;;;;;;14.35;4.70;;;;;;;12.59;100.00;99799.91;6185681;23;20066;-73
2023/09/22 06:09:47;;;;;;;;;;;;;;;12.59;100.00;99808.00;6213390;23;20004;-74
2023/09/22 06:12:13;;;;;;;11.93;3.60;;;;;;;12.60;100.00;99800.75;6212826;23;19911;-73
2023/09/22 06:14:39;;;;;;;14.32;4.32;;;;;;;12.61;100.00;99806.97;6185924;23;20004;-73
2023/09/22 06:17:04;;;;;;;14.82;4.45;;;;;;;12.61;100.00;99804.28;6211576;23;20001;-72
2023/09/22 06:19:29;;;;;;;14.88;4.53;;;;;;;12.62;100.00;99803.28;6212353;23;20004;-73
2023/09/22 06:21:55;;;;;;;13.27;4.00;;;;;;;12.62;100.00;99804.16;6213483;23;20005;-73
2023/09/22 06:24:20;;;;;;;12.95;4.03;;;;;;;12.63;100.00;99813.09;6212936;23;20046;-73
2023/09/22 06:26:46;;;;;;;13.32;4.32;;;;;;;12.64;100.00;99812.94;6212612;23;20008;-74
2023/09/22 06:29:11;;;;;;;10.75;4.00;;;;;;;12.68;100.00;99813.47;6186368;23;20004;-73
2023/09/22 06:31:37;;;;;;;11.65;4.15;;;;;;;12.69;100.00;99820.56;6212917;23;20314;-73
2023/09/22 06:34:04;;;;;;;8.48;3.40;;;;;;;12.69;100.00;99826.78;6212200;23;20036;-73
2023/09/22 06:36:30;;;;;;;13.10;4.32;;;;;;;12.74;100.00;99818.28;6212623;23;20425;-74
2023/09/22 06:38:55;;;;;;;12.50;4.25;;;;;;;12.79;100.00;99818.66;6213056;23;20091;-73
2023/09/22 06:41:20;;;;;;;11.93;4.03;;;;;;;12.79;100.00;99815.94;6186243;23;20422;-73
2023/09/22 06:43:49;;;;;;;17.15;4.07;;;;;;;12.83;100.00;99821.91;6185854;23;20345;-73
2023/09/22 06:46:15;;;;;;;16.70;4.55;;;;;;;12.85;100.00;99823.41;6212878;23;20339;-73
2023/09/22 06:48:41;;;;;;;12.38;4.00;;;;;;;12.88;100.00;99841.16;6213223;23;20544;-72
2023/09/22 06:51:14;;;;;;;12.50;3.88;;;;;;;12.88;100.00;99839.28;6185939;23;20051;-73
2023/09/22 06:53:40;;;;;;;12.15;3.63;;;;;;;12.92;100.00;99835.28;6212624;23;20004;-72
2023/09/22 06:56:08;;;;;;;13.23;4.07;;;;;;;12.94;100.00;99841.41;6185911;23;20066;-73
2023/09/22 06:58:36;;;;;;;8.82;3.20;;;;;;;12.97;100.00;99842.09;6212951;23;20028;-72
2023/09/22 07:01:11;;;;;;;9.70;3.55;;;;;;;13.02;100.00;99839.78;6212817;23;20412;-73
2023/09/22 07:03:42;;;;;;;11.30;3.60;;;;;;;13.02;100.00;99845.19;6185567;23;20008;-73
2023/09/22 07:06:10;;;;;;;13.82;3.45;;;;;;;13.05;100.00;99850.28;6185983;23;20055;-73
2023/09/22 07:08:38;;;;;;;13.90;3.28;;;;;;;13.07;100.00;99851.78;6212899;23;20005;-73
2023/09/22 07:11:08;;;;;;;11.50;3.15;;;;;;;13.12;100.00;99848.66;6186233;23;20435;-73
2023/09/22 07:13:35;;;;;;;11.23;3.38;;;;;;;13.16;100.00;99852.72;6186009;23;20459;-73
2023/09/22 07:16:00;;;;;;;17.02;3.80;;;;;;;13.18;100.00;99868.78;6185436;23;20000;-72
2023/09/22 07:18:26;;;;;;;9.50;2.97;;;;;;;13.20;100.00;99855.97;6212834;23;20005;-73
2023/09/22 07:20:55;;;;;;;10.48;3.13;;;;;;;13.23;100.00;99864.59;6212758;23;20062;-73
2023/09/22 07:23:22;;;;;;;10.77;3.00;;;;;;;13.24;100.00;99863.59;6212554;23;20400;-73
2023/09/22 07:26:04;;;;;;;8.43;2.83;;;;;;;13.29;100.00;99864.00;6212695;23;20071;-73
2023/09/22 07:28:30;;;;;;;14.52;3.10;;;;;;;13.28;100.00;99865.00;6212759;23;20008;-72
2023/09/22 07:30:56;;;;;;;9.90;2.92;;;;;;;13.32;100.00;99868.22;6212195;23;20000;-73
2023/09/22 07:33:24;;;;;;;9.55;2.90;;;;;;;13.36;100.00;99871.50;6212690;23;20035;-73
2023/09/22 07:35:50;;;;;;;8.80;3.00;;;;;;;13.34;100.00;99871.66;6212324;23;20096;-74
2023/09/22 07:38:17;;;;;;;13.73;3.72;;;;;;;13.38;100.00;99882.97;6212565;23;20080;-73
2023/09/22 07:40:43;;;;;;;13.45;4.03;;;;;;;13.40;100.00;99892.63;6212477;23;20027;-73
2023/09/22 07:43:09;;;;;;;13.52;3.40;;;;;;;13.49;100.00;99898.94;6209372;23;20005;-72
2023/09/22 07:45:34;;;;;;;8.77;2.60;;;;;;;13.52;100.00;99895.94;6183601;23;20000;-73
2023/09/22 07:48:00;;;;;;;6.70;2.30;;;;;;;13.54;100.00;99893.91;6211502;23;20005;-72
2023/09/22 07:50:26;;;;;;;8.18;2.33;;;;;;;13.61;100.00;99897.69;6210994;23;20004;-74
2023/09/22 07:52:52;;;;;;;6.82;2.22;;;;;;;13.64;100.00;99896.53;6211148;23;20338;-72
2023/09/22 07:55:18;;;;;;;12.00;2.28;;;;;;;13.66;100.00;99904.47;6185080;23;20094;-73
2023/09/22 07:57:47;;;;;;;7.00;2.08;;;;;;;13.71;100.00;99902.19;6210959;23;20004;-73
2023/09/22 08:00:14;;;;;;;6.30;2.50;;;;;;;13.71;100.00;99905.72;6184120;23;20082;-72
2023/09/22 08:02:40;;;;;;;6.70;2.35;;;;;;;13.70;100.00;99922.06;6210778;23;20422;-73
2023/09/22 08:05:08;;;;;;;4.82;2.03;;;;;;;13.73;100.00;99917.19;6209824;23;20102;-74
2023/09/22 08:07:33;;;;;;;3.50;1.67;;;;;;;13.74;100.00;99915.38;6211492;23;20015;-73
2023/09/22 08:10:00;;;;;;;4.55;1.70;;;;;;;13.75;100.00;99917.91;6210758;23;20585;-72
2023/09/22 08:12:25;;;;;;;5.63;2.03;;;;;;;13.79;100.00;99922.00;6210665;23;20004;-73
2023/09/22 08:14:51;;;;;;;8.77;2.22;;;;;;;13.79;100.00;99934.63;6210496;23;20146;-73
2023/09/22 08:17:16;;;;;;;5.65;1.48;;;;;;;13.82;100.00;99928.91;6211302;23;20091;-72
2023/09/22 08:19:41;;;;;;;8.82;2.55;;;;;;;13.85;100.00;99931.34;6210988;23;20011;-72
2023/09/22 08:22:06;;;;;;;8.65;1.95;;;;;;;13.89;100.00;99937.25;6210699;23;20076;-72
2023/09/22 08:24:32;;;;;;;9.10;2.47;;;;;;;13.92;100.00;99932.38;6210727;23;19996;-72
2023/09/22 08:26:59;;;;;;;3.28;1.63;;;;;;;13.94;100.00;99938.47;6211000;23;20164;-72
2023/09/22 08:29:25;;;;;;;6.07;1.70;;;;;;;13.91;100.00;99935.22;6184415;23;20004;-73
2023/09/22 08:31:50;;;;;;;4.57;1.80;;;;;;;13.94;100.00;99948.47;6211212;23;20402;-73
2023/09/22 08:34:15;;;;;;;8.43;1.83;;;;;;;13.92;100.00;99935.06;6210675;23;20005;-72
2023/09/22 08:36:41;;;;;;;4.07;1.77;;;;;;;13.89;100.00;99948.91;6211005;23;20001;-73
2023/09/22 08:39:08;;;;;;;3.95;1.65;;;;;;;13.92;100.00;99945.88;6211481;23;20139;-72
2023/09/22 08:41:38;;;;;;;9.18;2.13;;;;;;;13.95;100.00;99942.91;6210765;23;20446;-72
2023/09/22 08:44:12;;;;;;;;;;;;;;;14.01;100.00;99948.66;6211628;23;20422;-72
2023/09/22 08:46:38;;;;;;;5.03;1.83;;;;;;;14.07;100.00;99945.31;6211255;23;19912;-72
2023/09/22 08:49:04;;;;;;;5.38;2.08;;;;;;;14.13;100.00;99947.41;6211107;23;20015;-72
2023/09/22 08:51:30;;;;;;;6.40;2.03;;;;;;;14.16;100.00;99939.81;6183613;23;20027;-72
2023/09/22 08:53:56;;;;;;;7.78;2.05;;;;;;;14.15;100.00;99951.63;6210738;23;20075;-71
2023/09/22 08:56:22;;;;;;;9.85;1.75;;;;;;;14.16;100.00;99950.63;6211147;23;20091;-72
2023/09/22 08:58:47;;;;;;;4.38;1.52;;;;;;;14.16;100.00;99950.63;6210904;23;20009;-73
2023/09/22 09:01:12;;;;;;;4.25;1.80;;;;;;;14.16;100.00;99945.22;6210678;23;20011;-72
2023/09/22 09:03:39;;;;;;;8.65;2.03;;;;;;;14.16;100.00;99939.81;6210676;23;20387;-71
2023/09/22 09:06:09;;;;;;;4.35;1.77;;;;;;;14.22;100.00;99949.16;6183927;23;20028;-74
2023/09/22 09:08:35;;;;;;;2.97;1.40;;;;;;;14.26;100.00;99953.25;6210392;23;20028;-74
2023/09/22 09:11:09;;;;;;;4.70;1.75;;;;;;;14.31;100.00;99950.91;6210592;23;20031;-73
2023/09/22 09:13:35;;;;;;;3.72;1.65;;;;;;;14.36;100.00;99955.00;6211235;23;20004;-73
2023/09/22 09:16:07;;;;;;;2.92;1.23;;;;;;;14.41;100.00;99955.38;6210988;23;20326;-73
2023/09/22 09:18:33;;;;;;;4.90;1.73;;;;;;;14.48;100.00;99959.09;6212688;23;20012;-73
2023/09/22 09:21:15;;;;;;;4.25;1.67;;;;;;;14.57;100.00;99954.59;6212522;23;20055;-74
2023/09/22 09:23:55;;;;;;;4.90;1.73;;;;;;;14.68;100.00;99962.47;6212300;23;20396;-75
2023/09/22 09:26:24;;;;;;;;;;;;;;;14.78;100.00;99960.50;6186515;23;20004;-73
2023/09/22 09:28:49;;;;;;;2.90;1.63;;;;;;;14.88;97.66;99967.66;6212506;23;19908;-75
2023/09/22 09:31:17;;;;;;;2.80;1.40;;;;;;;14.94;99.00;99967.00;6211631;23;20004;-71
2023/09/22 09:33:51;;;;;;;5.35;1.73;;;;;;;14.96;96.83;99963.09;6210283;23;20075;-73
2023/09/22 09:36:16;;;;;;;9.95;1.90;;;;;;;15.02;98.81;99972.41;6185048;23;20085;-72
2023/09/22 09:38:42;;;;;;;3.45;1.42;;;;;;;15.08;96.14;99968.22;6212078;23;20032;-74
2023/09/22 09:41:09;;;;;;;10.15;1.83;;;;;;;15.16;96.14;99965.56;6210835;23;20020;-74
2023/09/22 09:43:36;;;;;;;5.30;1.52;;;;;;;15.23;97.08;99972.00;6211997;23;20000;-73
2023/09/22 09:46:02;;;;;;;4.65;1.58;;;;;;;15.28;94.32;99980.47;6185001;23;20066;-73
2023/09/22 09:48:27;;;;;;;4.05;1.40;;;;;;;15.31;92.73;99972.00;6185246;23;20102;-73
2023/09/22 09:50:59;;;;;;;7.13;2.30;;;;;;;15.36;94.00;99964.25;6185907;23;20016;-73
2023/09/22 09:53:26;;;;;;;5.57;1.67;;;;;;;15.41;93.19;99976.47;6212137;23;20001;-73
2023/09/22 09:55:56;;;;;;;7.28;1.80;;;;;;;15.45;91.33;99973.25;6184860;23;20008;-72
2023/09/22 09:58:24;;;;;;;5.75;2.13;;;;;;;15.51;92.54;99979.88;6212048;23;20004;-68
2023/09/22 10:00:50;;;;;;;4.10;1.33;;;;;;;15.55;89.98;99973.94;6211705;23;20014;-75
2023/09/22 10:03:21;;;;;;;4.18;1.50;;;;;;;15.63;91.06;99974.97;6212414;23;20367;-72
2023/09/22 10:05:50;;;;;;;6.43;1.70;;;;;;;15.68;88.66;99972.59;6212441;23;20011;-73
2023/09/22 10:08:17;;;;;;;6.18;1.52;;;;;;;15.74;90.08;99966.53;6211465;23;20004;-72
2023/09/22 10:10:43;;;;;;;4.82;1.52;;;;;;;15.83;90.81;99964.72;6211784;23;20016;-73
2023/09/22 10:13:09;;;;;;;6.65;1.48;;;;;;;15.87;89.38;99964.19;6211923;23;20027;-72
2023/09/22 10:15:54;;;;;;;5.25;2.00;;;;;;;15.94;90.77;99961.66;6212457;23;20058;-73
2023/09/22 10:18:44;;;;;;;7.60;1.75;;;;;;;16.00;92.03;99963.69;6185308;23;20268;-72
2023/09/22 10:21:33;;;;;;;7.38;1.88;;;;;;;16.05;89.74;99963.19;6185134;23;20005;-73
2023/09/22 10:24:25;;;;;;;8.95;1.90;;;;;;;16.07;87.85;99961.13;6183790;23;20027;-73
2023/09/22 10:26:53;;;;;;;2.95;1.23;;;;;;;16.12;87.92;99958.78;6184840;23;20008;-73
2023/09/22 10:29:36;;;;;;;4.25;1.48;;;;;;;16.18;86.91;99960.81;6210929;23;20000;-74
2023/09/22 10:32:18;;;;;;;6.63;1.80;;;;;;;16.20;87.27;99957.91;6211890;23;20031;-74
2023/09/22 10:34:47;;;;;;;4.32;1.35;;;;;;;16.26;87.25;99951.81;6211575;23;20012;-72
2023/09/22 10:37:12;;;;;;;9.55;2.30;;;;;;;16.30;85.44;99950.44;6212372;23;20004;-73
2023/09/22 10:39:58;;;;;;;10.35;1.98;;;;;;;16.32;86.74;99961.94;6211806;23;20015;-73
2023/09/22 10:42:25;;;;;;;5.63;1.80;;;;;;;16.34;87.50;99967.19;6212025;23;20587;-73
2023/09/22 10:45:13;;;;;;;4.57;1.52;;;;;;;16.32;86.11;99964.66;6211816;23;20026;-74
2023/09/22 10:47:43;;;;;;;3.72;1.40;;;;;;;16.23;84.85;99974.66;6212456;23;20422;-73
2023/09/22 10:50:18;;;;;;;2.38;1.48;;;;;;;16.15;85.65;99965.69;6210903;23;20096;-73
2023/09/22 10:52:53;;;;;;;2.65;1.52;;;;;;;16.06;86.47;99965.72;6184558;23;20005;-73
2023/09/22 10:55:38;;;;;;;4.82;1.80;;;;;;;15.96;85.68;99964.19;6184897;23;20012;-74
2023/09/22 10:58:16;;;;;;;2.40;1.55;;;;;;;15.88;85.70;99967.75;6211626;23;20019;-75
2023/09/22 11:00:56;;;;;;;3.78;1.48;;;;;;;15.80;86.04;99967.72;6211334;23;20032;-73
2023/09/22 11:03:22;;;;;;;4.80;1.70;;;;;;;15.75;86.79;99970.06;6211424;23;20008;-73
2023/09/22 11:05:58;;;;;;;3.78;1.48;;;;;;;15.70;85.50;99967.88;6211781;23;20004;-73
2023/09/22 11:08:23;;;;;;;6.25;1.70;;;;;;;15.72;84.77;99964.00;6211090;23;20064;-71
2023/09/22 11:10:51;;;;;;;7.93;1.95;;;;;;;15.74;85.98;99961.13;6211349;23;20020;-71
2023/09/22 11:13:18;;;;;;;4.88;1.40;;;;;;;15.75;85.61;99967.38;6211646;23;20073;-74
2023/09/22 11:15:50;;;;;;;6.10;2.05;;;;;;;15.82;86.25;99965.72;6211673;23;20016;-73
2023/09/22 11:18:25;;;;;;;2.75;1.73;;;;;;;15.84;86.31;99961.84;6211916;23;20071;-72
2023/09/22 11:21:04;;;;;;;7.10;1.88;;;;;;;15.95;87.74;99967.94;6212197;23;20009;-73
2023/09/22 11:23:31;;;;;;;7.68;1.83;;;;;;;16.05;85.80;99974.03;6211661;23;20008;-72
2023/09/22 11:25:58;;;;;;;7.20;2.05;;;;;;;16.13;84.50;99971.28;6184912;23;20009;-74
2023/09/22 11:28:23;;;;;;;3.35;1.63;;;;;;;16.22;84.41;99967.56;6211786;23;20099;-72
2023/09/22 11:30:50;;;;;;;2.58;1.33;;;;;;;16.33;85.73;99979.94;6210754;23;20079;-73
2023/09/22 11:33:15;;;;;;;3.67;1.65;;;;;;;16.34;83.05;99976.22;6210906;23;20088;-73
2023/09/22 11:35:41;;;;;;;4.57;1.88;;;;;;;16.35;83.17;99979.75;6211743;23;20000;-67
2023/09/22 11:38:27;;;;;;;9.80;2.60;;;;;;;16.40;83.36;99983.66;6211577;23;20469;-72
2023/09/22 11:41:08;;;;;;;5.55;1.83;;;;;;;16.46;81.63;99989.38;6210840;23;20348;-67
2023/09/22 11:43:48;;;;;;;6.75;1.80;;;;;;;16.47;79.52;99982.94;6209711;23;20040;-68
2023/09/22 11:46:26;;;;;;;6.93;1.85;;;;;;;16.52;79.66;100000.41;6209060;23;20000;-67
2023/09/22 11:48:59;;;;;;;6.40;1.90;;;;;;;16.61;80.87;99993.09;6210167;23;20015;-68
2023/09/22 11:51:54;;;;;;;6.85;2.00;;;;;;;16.69;80.92;99978.66;6183885;23;20014;-69
2023/09/22 11:54:21;;;;;;;2.40;1.45;;;;;;;16.74;80.39;99979.84;6210661;23;20430;-68
2023/09/22 11:56:50;;;;;;;4.50;1.70;;;;;;;16.84;78.47;99992.34;6210922;23;20277;-67
2023/09/22 11:59:20;;;;;;;4.10;1.50;;;;;;;16.83;74.96;99979.81;6210198;23;20087;-88
2023/09/22 12:01:48;;;;;;;2.78;1.23;;;;;;;16.83;74.26;99988.78;6199946;23;20300;-85